Terminal Aerodrome Forecast
Issued by NWS Charleston, SC

Home | Current Version | Previous Version | Text Only | Print | Product List | Glossary On
Versions: 1 2 3 4 5 6 7 8 9 10 11 12 13 14 15 16 17 18 19
000
FTUS42 KCHS 270520
TAFCHS
TAF
KCHS 270520Z 2706/2806 00000KT P6SM SKC
     FM271400 11007KT P6SM SCT200
     FM271900 15011KT P6SM FEW040 BKN200
     FM280000 13004KT P6SM SCT035 OVC150=

USA.gov is the U.S. government's official web portal to all federal, state and local government web resources and services.